Time;durP1;ratioP1;P1;durP2;ratioP2;P2;SDS_P1;SDS_P2;PMS_P1;PMS_P2;Temp;Humidity;BMP_temperature;BMP_pressure;BME280_temperature;BME280_humidity;BME280_pressure;Samples;Min_cycle;Max_cycle;Signal;HPM_P1;HPM_P2
2021/12/19 00:00:23;;;;;;;12.80;6.65;;;7.80;99.90;;;;;;5096669;27;20089;-88
2021/12/19 00:10:59;;;;;;;12.13;5.70;;;7.90;99.90;;;;;;5130024;27;20039;-87
2021/12/19 00:13:27;;;;;;;11.77;6.22;;;7.90;99.90;;;;;;5096111;28;20160;-87
2021/12/19 00:15:54;;;;;;;14.57;7.03;;;7.80;99.90;;;;;;5096324;28;20050;-88
2021/12/19 00:18:20;;;;;;;14.25;6.53;;;7.90;99.90;;;;;;5095862;28;20125;-87
2021/12/19 00:20:46;;;;;;;12.82;6.28;;;7.90;99.90;;;;;;5113298;28;20042;-88
2021/12/19 00:23:12;;;;;;;11.88;6.25;;;7.90;99.90;;;;;;5113472;28;20083;-87
2021/12/19 00:25:39;;;;;;;12.98;6.60;;;7.90;99.90;;;;;;5096403;28;20034;-87
2021/12/19 00:28:05;;;;;;;12.88;6.55;;;7.90;99.90;;;;;;5096310;28;20122;-87
2021/12/19 00:30:31;;;;;;;12.25;5.60;;;7.90;99.90;;;;;;5096894;28;20522;-87
2021/12/19 00:32:57;;;;;;;11.48;5.63;;;8.00;99.90;;;;;;5096343;28;20081;-87
2021/12/19 00:35:23;;;;;;;11.15;5.45;;;7.90;99.90;;;;;;5096073;28;20121;-87
2021/12/19 00:37:50;;;;;;;11.32;5.50;;;8.00;99.90;;;;;;5095600;28;20176;-87
2021/12/19 00:40:16;;;;;;;12.15;5.35;;;8.00;99.90;;;;;;5094399;28;20042;-87
2021/12/19 00:42:42;;;;;;;12.45;4.80;;;8.00;99.90;;;;;;5112955;28;20043;-87
2021/12/19 00:45:30;;;;;;;11.18;4.80;;;8.00;99.90;;;;;;5096190;28;20111;-87
2021/12/19 00:47:55;;;;;;;12.15;5.38;;;8.00;99.90;;;;;;5096635;28;20111;-87
2021/12/19 00:50:23;;;;;;;12.77;5.68;;;8.00;99.90;;;;;;5095859;28;20876;-87
2021/12/19 00:52:49;;;;;;;12.20;5.35;;;8.10;99.90;;;;;;5096480;28;20177;-88
2021/12/19 00:55:21;;;;;;;10.93;4.88;;;8.10;99.90;;;;;;5112744;28;20034;-88
2021/12/19 00:57:47;;;;;;;13.68;5.45;;;8.10;99.90;;;;;;5096006;28;20043;-87
2021/12/19 01:00:15;;;;;;;9.93;5.15;;;8.10;99.90;;;;;;5095970;28;20043;-87
2021/12/19 01:02:41;;;;;;;11.25;5.43;;;8.10;99.90;;;;;;5096554;28;20066;-88
2021/12/19 01:05:08;;;;;;;11.27;4.60;;;8.10;99.90;;;;;;5095194;28;20045;-87
2021/12/19 01:07:34;;;;;;;11.68;5.50;;;8.10;99.90;;;;;;5096095;28;20039;-87
2021/12/19 01:10:00;;;;;;;13.70;5.35;;;8.00;99.90;;;;;;5096156;28;20039;-88
2021/12/19 01:12:26;;;;;;;10.85;5.07;;;8.00;99.90;;;;;;5112382;28;20040;-87
2021/12/19 01:14:52;;;;;;;11.52;4.78;;;8.00;99.90;;;;;;5095864;28;20039;-87
2021/12/19 01:17:18;;;;;;;10.57;5.05;;;8.00;99.90;;;;;;5113132;28;20061;-88
2021/12/19 01:19:45;;;;;;;12.43;5.07;;;8.00;99.90;;;;;;5112570;28;20480;-88
2021/12/19 01:22:11;;;;;;;15.30;6.40;;;8.00;99.90;;;;;;5097848;27;20039;-88
2021/12/19 01:24:37;;;;;;;13.40;6.38;;;8.00;99.90;;;;;;5099857;27;20511;-88
2021/12/19 01:27:04;;;;;;;11.98;6.07;;;8.00;99.90;;;;;;5099841;27;20038;-88
2021/12/19 01:29:30;;;;;;;14.23;6.30;;;8.00;99.90;;;;;;5116675;27;20035;-88
2021/12/19 01:31:56;;;;;;;13.90;6.32;;;8.10;99.90;;;;;;5099613;27;20087;-88
2021/12/19 01:34:22;;;;;;;15.15;6.45;;;8.10;99.90;;;;;;5115913;27;20035;-87
2021/12/19 01:36:48;;;;;;;13.45;6.45;;;8.10;99.90;;;;;;5098858;27;20046;-88
2021/12/19 01:39:14;;;;;;;12.88;5.97;;;8.10;99.90;;;;;;5115795;27;20108;-88
2021/12/19 01:41:55;;;;;;;13.48;6.13;;;8.10;99.90;;;;;;5099533;27;20043;-88
2021/12/19 01:44:22;;;;;;;15.18;6.80;;;8.10;99.90;;;;;;5099169;27;20039;-88
2021/12/19 01:46:49;;;;;;;14.60;6.60;;;8.10;99.90;;;;;;5099039;27;20046;-88
2021/12/19 01:49:17;;;;;;;13.13;5.68;;;8.10;99.90;;;;;;5116118;27;20077;-88
2021/12/19 01:51:43;;;;;;;12.73;5.00;;;8.10;99.90;;;;;;5099044;27;20043;-88
2021/12/19 01:54:10;;;;;;;15.30;6.53;;;8.10;99.90;;;;;;5099137;27;20495;-88
2021/12/19 01:56:37;;;;;;;12.60;6.18;;;8.10;99.90;;;;;;5098960;27;20043;-88
2021/12/19 01:59:03;;;;;;;12.43;5.80;;;8.10;99.90;;;;;;5098598;27;20045;-88
2021/12/19 02:01:28;;;;;;;11.55;5.32;;;8.10;99.90;;;;;;5098842;27;20039;-88
2021/12/19 02:03:54;;;;;;;9.50;4.13;;;8.10;99.90;;;;;;5098808;27;20038;-88
2021/12/19 02:06:20;;;;;;;7.25;2.40;;;8.10;99.90;;;;;;5098485;27;20039;-88
2021/12/19 02:08:49;;;;;;;7.80;2.63;;;8.20;99.90;;;;;;5098657;27;20043;-87
2021/12/19 02:11:15;;;;;;;7.95;2.50;;;8.20;99.90;;;;;;5116255;27;20039;-88
2021/12/19 02:13:41;;;;;;;7.15;2.67;;;8.20;99.90;;;;;;5115467;27;20189;-88
2021/12/19 02:16:07;;;;;;;7.53;2.40;;;8.20;99.90;;;;;;5133919;27;20042;-88
2021/12/19 02:18:33;;;;;;;7.00;2.53;;;8.20;99.90;;;;;;5133945;27;20031;-88
2021/12/19 02:21:00;;;;;;;8.45;2.72;;;8.20;99.90;;;;;;5098439;27;20088;-88
2021/12/19 02:23:28;;;;;;;7.45;2.40;;;8.20;99.90;;;;;;5115236;27;20038;-88
2021/12/19 02:25:55;;;;;;;7.95;2.70;;;8.20;99.90;;;;;;5133921;27;20504;-88
2021/12/19 02:28:21;;;;;;;7.57;3.05;;;8.20;99.90;;;;;;5133649;27;20057;-88
2021/12/19 02:30:48;;;;;;;9.15;3.30;;;8.20;99.90;;;;;;5134257;27;20035;-88
2021/12/19 02:33:18;;;;;;;9.52;3.30;;;8.20;99.90;;;;;;5133042;27;20039;-88
2021/12/19 02:35:50;;;;;;;7.93;3.45;;;8.20;99.90;;;;;;5115165;27;20210;-88
2021/12/19 02:49:25;;;;;;;6.07;1.88;;;8.20;99.90;;;;;;5129974;27;20154;-89
2021/12/19 02:51:53;;;;;;;4.80;1.50;;;8.20;99.90;;;;;;5113577;27;20035;-88
2021/12/19 02:54:19;;;;;;;5.85;1.67;;;8.20;99.90;;;;;;5098169;27;20485;-88
2021/12/19 02:56:44;;;;;;;5.18;2.35;;;8.20;99.90;;;;;;5099257;27;20467;-88
2021/12/19 02:59:10;;;;;;;6.70;1.92;;;8.20;99.90;;;;;;5099604;27;20040;-88
2021/12/19 03:01:36;;;;;;;7.18;2.00;;;8.20;99.90;;;;;;5099281;27;20050;-88
2021/12/19 03:04:02;;;;;;;5.63;1.83;;;8.10;99.90;;;;;;5132045;27;20050;-88
2021/12/19 03:06:27;;;;;;;4.13;1.40;;;8.00;99.90;;;;;;5097179;27;20047;-88
2021/12/19 03:08:56;;;;;;;5.25;1.48;;;8.00;99.90;;;;;;5133186;27;20035;-88
2021/12/19 03:19:19;;;;;;;3.40;1.33;;;7.90;99.90;;;;;;5131443;27;20100;-88
2021/12/19 03:21:45;;;;;;;4.80;1.00;;;8.00;99.90;;;;;;5097390;27;20575;-89
2021/12/19 03:24:11;;;;;;;4.25;1.17;;;8.00;99.90;;;;;;5114705;27;20046;-88
2021/12/19 03:26:36;;;;;;;3.85;1.02;;;8.00;99.90;;;;;;5097089;27;20043;-89
2021/12/19 03:29:04;;;;;;;2.38;0.82;;;8.00;99.90;;;;;;5097425;27;20057;-88
2021/12/19 03:31:30;;;;;;;2.25;0.85;;;8.00;99.90;;;;;;5132493;27;20491;-88
2021/12/19 03:33:55;;;;;;;3.70;1.10;;;8.00;99.90;;;;;;5096790;27;20076;-88
2021/12/19 03:36:21;;;;;;;2.65;0.98;;;8.00;99.90;;;;;;5096938;27;20031;-88
2021/12/19 03:38:48;;;;;;;2.72;0.95;;;8.00;99.90;;;;;;5131932;27;20441;-88
2021/12/19 03:41:21;;;;;;;3.65;1.10;;;8.00;99.90;;;;;;5096896;27;20080;-88
2021/12/19 03:43:47;;;;;;;4.30;1.10;;;8.00;99.90;;;;;;5096678;27;20039;-88
2021/12/19 03:46:14;;;;;;;3.67;1.10;;;8.00;99.90;;;;;;5131351;27;20070;-88
2021/12/19 03:48:40;;;;;;;2.55;1.10;;;8.00;99.90;;;;;;5096592;27;20027;-88
2021/12/19 03:51:06;;;;;;;3.63;1.13;;;8.00;99.90;;;;;;5114014;27;20050;-88
2021/12/19 03:53:32;;;;;;;4.25;1.00;;;8.00;99.90;;;;;;5096475;27;20031;-88
2021/12/19 03:55:58;;;;;;;3.38;1.00;;;8.00;99.90;;;;;;5113755;27;20049;-88
2021/12/19 03:58:23;;;;;;;4.18;1.15;;;8.10;99.90;;;;;;5096380;27;20090;-88
2021/12/19 04:00:52;;;;;;;3.92;1.00;;;8.10;99.90;;;;;;5112996;27;20035;-88
2021/12/19 04:03:20;;;;;;;3.80;1.40;;;8.00;99.90;;;;;;5096498;27;20031;-88
2021/12/19 04:05:50;;;;;;;3.50;1.10;;;8.00;99.90;;;;;;5096547;27;20492;-89
2021/12/19 04:08:18;;;;;;;4.85;1.35;;;8.00;99.90;;;;;;5096553;28;20084;-88
2021/12/19 04:10:46;;;;;;;3.90;1.20;;;8.00;99.90;;;;;;5132271;27;20058;-88
2021/12/19 04:13:12;;;;;;;4.90;1.40;;;8.00;99.90;;;;;;5113526;27;20051;-88
2021/12/19 04:15:38;;;;;;;3.60;1.13;;;8.00;99.90;;;;;;5130177;27;20047;-88
2021/12/19 04:18:04;;;;;;;4.43;1.20;;;8.10;99.90;;;;;;5131631;27;20042;-88
2021/12/19 04:20:30;;;;;;;4.63;1.40;;;8.10;99.90;;;;;;5097204;28;20066;-88
2021/12/19 04:22:55;;;;;;;3.85;1.17;;;8.10;99.90;;;;;;5113419;28;20123;-88
2021/12/19 04:25:22;;;;;;;4.00;1.13;;;8.10;99.90;;;;;;5113574;28;20046;-88
2021/12/19 04:27:47;;;;;;;4.57;1.58;;;8.10;99.90;;;;;;5096308;28;20039;-88
2021/12/19 04:30:23;;;;;;;4.55;1.17;;;8.10;99.90;;;;;;5096629;28;20035;-88
2021/12/19 04:32:59;;;;;;;4.43;1.02;;;8.10;99.90;;;;;;5096362;28;20046;-88
2021/12/19 04:35:30;;;;;;;2.13;0.90;;;8.10;99.90;;;;;;5113294;28;20046;-88
2021/12/19 04:40:37;;;;;;;3.03;1.00;;;8.10;99.90;;;;;;5129121;28;20043;-88
2021/12/19 05:14:30;;;;;;;4.10;1.17;;;8.00;99.90;;;;;;5133818;27;20050;-88
2021/12/19 05:17:03;;;;;;;3.00;1.20;;;8.00;99.90;;;;;;5100223;27;20069;-88
2021/12/19 05:19:42;;;;;;;4.00;1.10;;;8.00;99.90;;;;;;5116623;27;20042;-88
2021/12/19 05:22:08;;;;;;;4.28;1.30;;;8.00;99.90;;;;;;5099055;27;20039;-88
2021/12/19 05:27:07;;;;;;;3.30;1.10;;;8.00;99.90;;;;;;5134884;27;20039;-88
2021/12/19 05:29:36;;;;;;;4.28;1.30;;;8.00;99.90;;;;;;5116608;27;20471;-88
2021/12/19 05:32:03;;;;;;;3.95;1.20;;;8.00;99.90;;;;;;5099554;27;20507;-88
2021/12/19 05:34:30;;;;;;;4.30;1.40;;;8.00;99.90;;;;;;5099644;27;20031;-88
2021/12/19 05:45:18;;;;;;;4.82;1.05;;;8.00;99.90;;;;;;5133571;27;20038;-88
2021/12/19 05:47:46;;;;;;;4.53;1.20;;;8.00;99.90;;;;;;5099181;27;20058;-88
2021/12/19 05:50:13;;;;;;;3.75;1.27;;;8.00;99.90;;;;;;5099115;27;20055;-88
2021/12/19 05:52:39;;;;;;;6.22;1.25;;;8.00;99.90;;;;;;5098812;27;20078;-88
2021/12/19 05:55:06;;;;;;;4.85;1.30;;;8.00;99.90;;;;;;5115359;27;20522;-88
2021/12/19 05:57:33;;;;;;;3.70;1.42;;;8.00;99.90;;;;;;5115793;27;20046;-88
2021/12/19 05:59:59;;;;;;;5.10;1.50;;;8.00;99.90;;;;;;5098492;27;20491;-88
2021/12/19 06:02:25;;;;;;;4.53;1.42;;;7.90;99.90;;;;;;5098494;27;20508;-88
2021/12/19 06:04:51;;;;;;;5.28;1.60;;;8.00;99.90;;;;;;5098461;27;20492;-88
2021/12/19 06:07:17;;;;;;;5.50;1.60;;;8.00;99.90;;;;;;5097889;27;20046;-88
2021/12/19 06:09:42;;;;;;;5.80;1.83;;;8.00;99.90;;;;;;5098414;27;20047;-88
2021/12/19 06:12:08;;;;;;;5.55;1.65;;;8.00;99.90;;;;;;5098835;27;20043;-88
2021/12/19 06:14:34;;;;;;;5.28;1.45;;;8.00;99.90;;;;;;5098653;27;20043;-88
2021/12/19 06:17:02;;;;;;;6.45;1.65;;;8.00;99.90;;;;;;5116017;27;20035;-89
2021/12/19 06:19:28;;;;;;;8.23;2.30;;;8.00;99.90;;;;;;5094284;27;20168;-88
2021/12/19 06:21:54;;;;;;;6.13;2.25;;;8.00;99.90;;;;;;5097331;27;20126;-88
2021/12/19 06:24:20;;;;;;;7.80;2.33;;;8.00;99.90;;;;;;5097955;27;20164;-88
2021/12/19 06:26:46;;;;;;;9.65;2.28;;;8.00;99.90;;;;;;5097963;27;20035;-89
2021/12/19 06:29:12;;;;;;;7.18;2.10;;;8.00;99.90;;;;;;5098156;27;20502;-88
2021/12/19 06:31:38;;;;;;;6.00;2.08;;;8.00;99.90;;;;;;5115315;27;20126;-88
2021/12/19 06:34:04;;;;;;;9.23;2.50;;;8.00;99.90;;;;;;5097958;27;20148;-89
2021/12/19 06:36:29;;;;;;;9.73;2.47;;;8.00;99.90;;;;;;5097246;27;20118;-88
2021/12/19 06:38:55;;;;;;;7.50;2.42;;;8.00;99.90;;;;;;5133466;27;20106;-87
2021/12/19 06:41:21;;;;;;;7.97;2.70;;;8.00;99.90;;;;;;5098198;27;20515;-88
2021/12/19 06:43:47;;;;;;;9.40;2.92;;;8.00;99.90;;;;;;5133139;27;20063;-88
2021/12/19 06:46:13;;;;;;;9.93;3.55;;;8.00;99.90;;;;;;5097887;27;20565;-88
2021/12/19 06:48:39;;;;;;;10.55;3.38;;;8.10;99.90;;;;;;5132814;27;20079;-88
2021/12/19 06:51:04;;;;;;;13.25;4.15;;;8.10;99.90;;;;;;5097803;27;20078;-88
2021/12/19 06:53:30;;;;;;;11.25;4.82;;;8.10;99.90;;;;;;5097312;27;20147;-88
2021/12/19 06:55:57;;;;;;;14.63;5.07;;;8.10;99.90;;;;;;5095120;27;20135;-88
2021/12/19 06:58:22;;;;;;;13.00;5.38;;;8.10;99.90;;;;;;5096810;27;20047;-88
2021/12/19 07:00:48;;;;;;;16.17;5.72;;;8.10;99.90;;;;;;5095084;27;20038;-89
2021/12/19 07:03:15;;;;;;;16.40;5.65;;;8.10;99.90;;;;;;5132711;27;20503;-88
2021/12/19 07:05:42;;;;;;;14.95;5.32;;;8.10;99.90;;;;;;5097704;27;20039;-88
2021/12/19 07:08:07;;;;;;;17.90;5.80;;;8.10;99.90;;;;;;5115008;27;20122;-88
2021/12/19 07:10:34;;;;;;;10.95;4.45;;;8.10;99.90;;;;;;5096926;27;20139;-88
2021/12/19 07:13:00;;;;;;;13.82;4.57;;;8.10;99.90;;;;;;5097010;27;20039;-88
2021/12/19 07:15:27;;;;;;;12.40;5.13;;;8.10;99.90;;;;;;5097492;27;20035;-88
2021/12/19 07:17:53;;;;;;;13.32;5.70;;;8.10;99.90;;;;;;5096582;27;20080;-88
2021/12/19 07:20:19;;;;;;;12.85;5.70;;;8.10;99.90;;;;;;5132387;27;20032;-88
2021/12/19 07:22:45;;;;;;;13.73;5.85;;;8.20;99.90;;;;;;5113550;27;20084;-89
2021/12/19 07:25:11;;;;;;;21.25;6.75;;;8.20;99.90;;;;;;5132379;27;20065;-88
2021/12/19 07:27:36;;;;;;;20.75;6.38;;;8.20;99.90;;;;;;5114242;27;20520;-88
2021/12/19 07:30:05;;;;;;;16.40;5.68;;;8.20;99.90;;;;;;5132537;27;20039;-88
2021/12/19 07:32:31;;;;;;;17.52;5.65;;;8.20;99.90;;;;;;5127330;28;20044;-88
2021/12/19 07:34:57;;;;;;;15.88;5.10;;;8.20;99.90;;;;;;5086787;28;20126;-88
2021/12/19 07:37:23;;;;;;;16.25;5.30;;;8.20;99.90;;;;;;5098838;27;20132;-88
2021/12/19 07:40:15;;;;;;;16.45;5.47;;;8.20;99.90;;;;;;5128650;27;20124;-88
2021/12/19 07:42:42;;;;;;;14.85;4.90;;;8.20;99.90;;;;;;5098724;27;20526;-89
2021/12/19 07:45:13;;;;;;;17.63;6.97;;;8.20;99.90;;;;;;5097162;27;20125;-87
2021/12/19 07:47:39;;;;;;;12.48;4.88;;;8.20;99.90;;;;;;5114378;27;20039;-89
2021/12/19 07:50:07;;;;;;;17.30;5.43;;;8.20;99.90;;;;;;5132038;27;20095;-88
2021/12/19 07:52:33;;;;;;;14.55;5.55;;;8.20;99.90;;;;;;5096105;27;20042;-88
2021/12/19 07:54:59;;;;;;;17.30;5.65;;;8.20;99.90;;;;;;5112793;27;20357;-88
2021/12/19 07:57:25;;;;;;;16.33;5.25;;;8.20;99.90;;;;;;5113338;27;20160;-88
2021/12/19 07:59:50;;;;;;;14.90;4.85;;;8.20;99.90;;;;;;5096134;27;20381;-88
2021/12/19 08:02:16;;;;;;;11.32;4.57;;;8.20;99.90;;;;;;5096060;27;20034;-88
2021/12/19 08:04:42;;;;;;;14.27;4.43;;;8.20;99.90;;;;;;5096378;27;20114;-88
2021/12/19 08:07:11;;;;;;;17.55;4.55;;;8.20;99.90;;;;;;5096598;27;20034;-88
2021/12/19 08:09:40;;;;;;;16.17;5.90;;;8.20;99.90;;;;;;5096541;28;20054;-88
2021/12/19 08:12:07;;;;;;;16.17;4.78;;;8.20;99.90;;;;;;5096466;28;20039;-89
2021/12/19 08:14:33;;;;;;;13.52;4.35;;;8.30;99.90;;;;;;5095942;27;20035;-88
2021/12/19 08:16:59;;;;;;;14.90;4.90;;;8.20;99.90;;;;;;5113687;27;20494;-88
2021/12/19 08:19:25;;;;;;;12.68;4.50;;;8.20;99.90;;;;;;5096300;28;20034;-88
2021/12/19 08:21:53;;;;;;;14.75;4.65;;;8.20;99.90;;;;;;5095760;28;20566;-88
2021/12/19 08:24:19;;;;;;;19.65;5.95;;;8.20;99.90;;;;;;5095917;28;20534;-89
2021/12/19 08:26:46;;;;;;;15.63;4.55;;;8.20;99.90;;;;;;5113378;28;20084;-88
2021/12/19 08:29:12;;;;;;;14.30;4.88;;;8.20;99.90;;;;;;5095929;28;20074;-89
2021/12/19 08:31:39;;;;;;;14.70;4.80;;;8.30;99.90;;;;;;5097255;27;20036;-87
2021/12/19 08:34:04;;;;;;;18.02;5.72;;;8.30;99.90;;;;;;5100366;27;20079;-88
2021/12/19 08:36:30;;;;;;;13.43;4.25;;;8.30;99.90;;;;;;5100082;27;20445;-88
2021/12/19 08:38:58;;;;;;;15.02;4.72;;;8.30;99.90;;;;;;5117012;27;20182;-88
2021/12/19 08:41:23;;;;;;;13.50;4.70;;;8.30;99.90;;;;;;5098472;27;20035;-88
2021/12/19 08:43:49;;;;;;;11.32;3.97;;;8.30;99.90;;;;;;5100334;27;20068;-88
2021/12/19 08:46:15;;;;;;;12.85;3.67;;;8.30;99.90;;;;;;5100674;27;20518;-87
2021/12/19 08:48:40;;;;;;;13.30;4.13;;;8.30;99.90;;;;;;5099107;27;20041;-88
2021/12/19 08:51:06;;;;;;;13.77;3.88;;;8.30;99.90;;;;;;5099794;27;20039;-88
2021/12/19 08:53:32;;;;;;;12.63;3.85;;;8.30;99.90;;;;;;5099575;27;20039;-88
2021/12/19 08:55:58;;;;;;;13.88;3.85;;;8.30;99.90;;;;;;5100321;27;20027;-88
2021/12/19 08:58:24;;;;;;;14.20;4.13;;;8.30;99.90;;;;;;5099938;27;20043;-88
2021/12/19 09:00:49;;;;;;;15.20;5.20;;;8.30;99.90;;;;;;5116390;27;20039;-89
2021/12/19 09:03:16;;;;;;;15.05;4.45;;;8.30;99.90;;;;;;5099932;27;20035;-88
2021/12/19 09:05:42;;;;;;;14.45;4.60;;;8.40;99.90;;;;;;5117176;27;20075;-88
2021/12/19 09:08:08;;;;;;;17.77;4.60;;;8.40;99.90;;;;;;5117099;27;20066;-88
2021/12/19 09:10:33;;;;;;;14.05;4.15;;;8.40;99.90;;;;;;5100319;27;20504;-88
2021/12/19 09:12:59;;;;;;;12.70;4.32;;;8.40;99.90;;;;;;5113175;28;20028;-88
2021/12/19 09:15:25;;;;;;;13.95;4.30;;;8.40;99.90;;;;;;5079487;28;20042;-88
2021/12/19 09:17:51;;;;;;;13.95;4.07;;;8.40;99.90;;;;;;5077833;28;20692;-88
2021/12/19 09:20:17;;;;;;;13.82;4.05;;;8.40;99.90;;;;;;5079288;28;20126;-87
2021/12/19 09:22:43;;;;;;;13.43;3.60;;;8.40;99.90;;;;;;5079295;28;20031;-88
2021/12/19 09:25:09;;;;;;;12.18;3.72;;;8.40;99.90;;;;;;5096219;28;20084;-88
2021/12/19 09:27:35;;;;;;;12.07;4.03;;;8.40;99.90;;;;;;5079459;28;20122;-88
2021/12/19 09:30:01;;;;;;;14.00;3.90;;;8.50;99.90;;;;;;5078969;28;20134;-88
2021/12/19 09:32:27;;;;;;;15.40;4.40;;;8.40;99.90;;;;;;5096467;28;20078;-88
2021/12/19 09:34:54;;;;;;;15.38;4.65;;;8.40;99.90;;;;;;5114334;28;20101;-88
2021/12/19 09:37:20;;;;;;;12.60;3.42;;;8.50;99.90;;;;;;5080835;28;20119;-88
2021/12/19 09:39:48;;;;;;;12.93;3.22;;;8.50;99.90;;;;;;5098353;28;20118;-87
2021/12/19 09:42:17;;;;;;;11.65;3.85;;;8.50;99.90;;;;;;5079554;28;20039;-87
2021/12/19 09:44:43;;;;;;;12.95;3.55;;;8.50;99.90;;;;;;5079173;28;20035;-88
2021/12/19 09:47:08;;;;;;;14.52;3.90;;;8.50;99.90;;;;;;5079390;28;20408;-87
2021/12/19 09:49:35;;;;;;;11.15;3.42;;;8.50;99.90;;;;;;5095781;28;20565;-88
2021/12/19 09:52:05;;;;;;;12.13;3.38;;;8.50;99.90;;;;;;5095891;28;20044;-88
2021/12/19 09:54:32;;;;;;;11.57;3.60;;;8.50;99.90;;;;;;5095751;28;20040;-88
2021/12/19 09:56:57;;;;;;;13.82;3.38;;;8.60;99.90;;;;;;5079021;28;20043;-88
2021/12/19 09:59:23;;;;;;;14.60;4.03;;;8.60;99.90;;;;;;5122506;27;20035;-88
2021/12/19 10:02:00;;;;;;;10.25;2.88;;;8.60;99.90;;;;;;5097821;27;20031;-92
2021/12/19 10:04:37;;;;;;;9.75;3.38;;;8.60;99.90;;;;;;5131944;27;20042;-93
2021/12/19 10:07:04;;;;;;;12.07;3.20;;;8.60;99.90;;;;;;5099547;27;20035;-91
2021/12/19 10:09:30;;;;;;;12.35;2.53;;;8.60;99.90;;;;;;5115664;27;20043;-92
2021/12/19 10:12:10;;;;;;;9.45;2.67;;;8.70;99.90;;;;;;5098751;27;20042;-88
2021/12/19 10:14:37;;;;;;;9.20;2.60;;;8.70;99.90;;;;;;5098392;27;20042;-88
2021/12/19 10:17:19;;;;;;;11.02;3.25;;;8.70;99.90;;;;;;5098066;27;20042;-89
2021/12/19 10:19:57;;;;;;;10.23;2.65;;;8.70;99.90;;;;;;5115182;27;20043;-87
2021/12/19 10:22:29;;;;;;;10.30;3.15;;;8.70;99.90;;;;;;5114912;27;20179;-87
2021/12/19 10:25:19;;;;;;;7.45;2.35;;;8.70;99.90;;;;;;5097543;27;20053;-88
2021/12/19 10:27:48;;;;;;;9.57;2.65;;;8.70;99.90;;;;;;5093195;27;20043;-87
2021/12/19 10:30:26;;;;;;;12.77;3.40;;;8.80;99.90;;;;;;5098402;27;20043;-88
2021/12/19 10:33:07;;;;;;;9.85;2.92;;;8.80;99.90;;;;;;5098250;27;20069;-88
2021/12/19 10:35:39;;;;;;;13.13;2.55;;;8.80;99.90;;;;;;5115293;27;20035;-88
2021/12/19 10:38:07;;;;;;;8.15;2.65;;;8.80;99.90;;;;;;5098006;27;20035;-87
2021/12/19 10:40:33;;;;;;;10.95;2.95;;;8.80;99.90;;;;;;5114884;27;20684;-88
2021/12/19 10:43:02;;;;;;;11.10;3.45;;;8.80;99.90;;;;;;5114460;27;20087;-88
2021/12/19 10:45:43;;;;;;;12.27;2.80;;;8.80;99.90;;;;;;5097518;27;20050;-87
2021/12/19 10:48:24;;;;;;;13.20;2.78;;;8.80;99.90;;;;;;5098048;27;20072;-87
2021/12/19 10:51:05;;;;;;;12.88;2.90;;;8.80;99.90;;;;;;5097780;27;20407;-88
2021/12/19 10:53:37;;;;;;;10.00;2.80;;;8.80;99.90;;;;;;5113602;27;20407;-87
2021/12/19 10:56:10;;;;;;;10.35;3.13;;;8.80;99.90;;;;;;5114553;27;20043;-88
2021/12/19 10:58:43;;;;;;;10.52;2.75;;;8.90;99.90;;;;;;5097877;27;20403;-88
2021/12/19 11:01:29;;;;;;;11.10;2.95;;;8.90;99.90;;;;;;5097097;27;20047;-88
2021/12/19 11:04:07;;;;;;;10.25;2.97;;;8.90;99.90;;;;;;5096698;27;20042;-87
2021/12/19 11:06:39;;;;;;;9.70;2.80;;;8.90;99.90;;;;;;5097923;27;20039;-87
2021/12/19 11:09:14;;;;;;;16.47;2.77;;;8.90;99.90;;;;;;5097783;27;20034;-88
2021/12/19 11:11:54;;;;;;;8.60;2.50;;;8.90;99.90;;;;;;5097100;27;20046;-89
2021/12/19 11:14:32;;;;;;;10.15;2.40;;;8.90;99.90;;;;;;5097168;27;20611;-88
2021/12/19 11:16:59;;;;;;;9.98;2.40;;;8.90;99.90;;;;;;5096279;27;20039;-88
2021/12/19 11:19:27;;;;;;;8.55;2.72;;;8.90;99.90;;;;;;5114733;27;20031;-88
2021/12/19 11:21:53;;;;;;;10.20;2.67;;;8.90;99.90;;;;;;5113659;27;20051;-88
2021/12/19 11:24:21;;;;;;;9.40;2.78;;;8.90;99.90;;;;;;5096475;27;20098;-88
2021/12/19 11:26:50;;;;;;;9.95;2.70;;;8.90;99.90;;;;;;5114369;27;20039;-88
2021/12/19 11:29:15;;;;;;;12.93;2.47;;;8.90;99.90;;;;;;5097162;27;20129;-88
2021/12/19 11:31:46;;;;;;;9.40;2.67;;;8.90;99.90;;;;;;5096784;27;20126;-88
2021/12/19 11:34:36;;;;;;;9.70;3.10;;;8.90;99.90;;;;;;5113752;27;20043;-88
2021/12/19 11:37:10;;;;;;;11.57;3.42;;;8.90;99.90;;;;;;5099373;27;20039;-88
2021/12/19 11:39:52;;;;;;;11.43;3.33;;;8.90;99.90;;;;;;5114278;27;20073;-87
2021/12/19 11:42:27;;;;;;;8.20;2.30;;;8.90;99.90;;;;;;5076038;28;20046;-88
2021/12/19 11:45:18;;;;;;;11.57;2.97;;;8.90;99.90;;;;;;5076021;28;20703;-88
2021/12/19 11:47:52;;;;;;;11.88;2.53;;;8.90;99.90;;;;;;5093959;28;20126;-87
2021/12/19 11:50:29;;;;;;;10.48;2.63;;;8.90;99.90;;;;;;5076183;28;20035;-88
2021/12/19 11:53:07;;;;;;;12.07;2.53;;;8.90;99.90;;;;;;5076299;28;20036;-88
2021/12/19 11:55:44;;;;;;;14.90;2.70;;;9.00;99.90;;;;;;5093246;28;20122;-88
2021/12/19 11:58:11;;;;;;;11.45;2.55;;;9.00;99.90;;;;;;5076692;28;20439;-88
2021/12/19 12:00:50;;;;;;;12.43;2.45;;;9.00;99.90;;;;;;5078087;28;20541;-88
2021/12/19 12:03:15;;;;;;;9.15;2.53;;;9.00;99.90;;;;;;5076203;28;20488;-88
2021/12/19 12:05:43;;;;;;;10.75;2.65;;;9.00;99.90;;;;;;5075057;28;20049;-88
2021/12/19 12:08:09;;;;;;;11.80;2.88;;;9.00;99.90;;;;;;5076429;28;20031;-88
2021/12/19 12:10:47;;;;;;;12.85;2.72;;;9.00;99.90;;;;;;5076185;28;20039;-87
2021/12/19 12:13:29;;;;;;;11.90;2.35;;;9.10;99.90;;;;;;5075745;28;20051;-88
2021/12/19 12:16:23;;;;;;;12.50;2.50;;;9.10;99.90;;;;;;5076376;28;20043;-88
2021/12/19 12:19:01;;;;;;;10.15;2.40;;;9.10;99.90;;;;;;5075622;28;20508;-88
2021/12/19 12:24:15;;;;;;;13.35;2.65;;;9.10;99.90;;;;;;5108775;28;20151;-88
2021/12/19 12:26:49;;;;;;;10.83;2.20;;;9.00;99.90;;;;;;5075938;28;20489;-88
2021/12/19 12:29:15;;;;;;;9.75;2.83;;;9.00;99.90;;;;;;5076269;28;20043;-88
2021/12/19 12:31:43;;;;;;;12.25;2.53;;;9.10;99.90;;;;;;5076189;28;20043;-88
2021/12/19 12:34:11;;;;;;;9.48;2.47;;;9.10;99.90;;;;;;5075790;28;20114;-88
2021/12/19 12:36:37;;;;;;;10.77;2.90;;;9.10;99.90;;;;;;5076234;28;20036;-88
2021/12/19 12:39:08;;;;;;;11.50;2.78;;;9.10;99.90;;;;;;5076508;28;20114;-88
2021/12/19 12:44:14;;;;;;;12.65;2.78;;;9.10;99.90;;;;;;5129487;28;20097;-88
2021/12/19 12:46:44;;;;;;;15.65;3.38;;;9.10;99.90;;;;;;5129941;28;20042;-89
2021/12/19 12:49:19;;;;;;;14.13;2.70;;;9.10;99.90;;;;;;5095891;28;20046;-88
2021/12/19 12:51:49;;;;;;;12.15;2.83;;;9.10;99.90;;;;;;5112587;28;20152;-88
2021/12/19 12:54:21;;;;;;;13.40;2.88;;;9.10;99.90;;;;;;5113035;28;20039;-88
2021/12/19 12:56:50;;;;;;;16.20;3.25;;;9.10;99.90;;;;;;5131752;28;20039;-88
2021/12/19 12:59:19;;;;;;;14.23;2.75;;;9.10;99.90;;;;;;5131396;28;20096;-88
2021/12/19 13:02:08;;;;;;;13.85;3.05;;;9.10;99.90;;;;;;5131291;28;20079;-88
2021/12/19 13:04:34;;;;;;;14.20;2.70;;;9.10;99.90;;;;;;5102112;28;20046;-88
2021/12/19 13:07:06;;;;;;;11.98;2.45;;;9.10;99.90;;;;;;5109834;28;20497;-87
2021/12/19 13:09:40;;;;;;;16.58;3.63;;;9.10;99.90;;;;;;5106654;28;20067;-88
2021/12/19 13:12:27;;;;;;;16.75;2.92;;;9.10;99.90;;;;;;5112681;28;20071;-89
2021/12/19 13:14:55;;;;;;;15.95;3.15;;;9.10;99.90;;;;;;5095744;28;20043;-88
2021/12/19 13:17:33;;;;;;;14.25;2.42;;;9.10;99.90;;;;;;5114274;27;20035;-88
2021/12/19 13:20:06;;;;;;;14.48;3.08;;;9.10;99.90;;;;;;5099754;27;20154;-89
2021/12/19 13:22:51;;;;;;;12.57;2.55;;;9.10;99.90;;;;;;5116164;27;20193;-87
2021/12/19 13:25:29;;;;;;;12.40;2.38;;;9.10;99.90;;;;;;5099014;27;20039;-88
2021/12/19 13:28:01;;;;;;;18.95;3.72;;;9.10;99.90;;;;;;5099996;27;20074;-88
2021/12/19 13:30:32;;;;;;;17.67;2.90;;;9.10;99.90;;;;;;5099891;27;20035;-87
2021/12/19 13:33:09;;;;;;;15.07;2.97;;;9.10;99.90;;;;;;5099429;27;20035;-88
2021/12/19 13:35:42;;;;;;;15.52;2.70;;;9.10;99.90;;;;;;5099340;27;20080;-89
2021/12/19 13:38:17;;;;;;;13.60;3.38;;;9.10;99.90;;;;;;5099496;27;20039;-88
2021/12/19 13:40:45;;;;;;;14.82;3.92;;;9.10;99.90;;;;;;5129249;27;20027;-89
2021/12/19 13:43:41;;;;;;;13.30;3.15;;;9.10;99.90;;;;;;5104056;27;20043;-88
2021/12/19 13:46:13;;;;;;;18.33;3.17;;;9.10;99.90;;;;;;5084380;28;20527;-89
2021/12/19 13:48:48;;;;;;;18.13;2.97;;;9.10;99.90;;;;;;5092698;27;20506;-88
2021/12/19 13:51:21;;;;;;;13.60;3.05;;;9.10;99.90;;;;;;5100482;27;20114;-89
2021/12/19 13:53:53;;;;;;;15.40;3.15;;;9.10;99.90;;;;;;5107405;27;20039;-88
2021/12/19 13:56:24;;;;;;;14.35;2.33;;;9.10;99.90;;;;;;5117131;27;20031;-88
2021/12/19 13:58:52;;;;;;;15.02;3.83;;;9.10;99.90;;;;;;5096872;27;20042;-88
2021/12/19 14:01:29;;;;;;;17.13;3.47;;;9.10;99.90;;;;;;5104033;27;20063;-88
2021/12/19 14:04:16;;;;;;;11.73;2.45;;;9.10;99.90;;;;;;5096108;27;20039;-88
2021/12/19 14:06:45;;;;;;;10.90;2.33;;;9.10;99.90;;;;;;5095928;27;20066;-88
2021/12/19 14:09:14;;;;;;;19.52;3.58;;;9.10;99.90;;;;;;5097413;27;20039;-88
2021/12/19 14:11:43;;;;;;;17.85;3.33;;;9.10;99.90;;;;;;5096798;27;20031;-87
2021/12/19 14:16:59;;;;;;;17.55;3.10;;;9.10;99.90;;;;;;5112124;27;20043;-88
2021/12/19 14:19:27;;;;;;;13.82;2.60;;;9.10;99.90;;;;;;5113937;27;20074;-88